sensor_id;sensor_type;location;lat;lon;timestamp;P1;durP1;ratioP1;P2;durP2;ratioP2
1685;SDS011;840;47.980;7.830;2023-05-07T00:00:23;3.60;;;2.20;;
1685;SDS011;840;47.980;7.830;2023-05-07T00:02:50;2.53;;;2.33;;
1685;SDS011;840;47.980;7.830;2023-05-07T00:05:17;2.37;;;2.20;;
1685;SDS011;840;47.980;7.830;2023-05-07T00:07:46;3.90;;;3.50;;
1685;SDS011;840;47.980;7.830;2023-05-07T00:10:13;4.10;;;2.23;;
1685;SDS011;840;47.980;7.830;2023-05-07T00:12:40;2.13;;;2.00;;
1685;SDS011;840;47.980;7.830;2023-05-07T00:15:07;2.07;;;1.97;;
1685;SDS011;840;47.980;7.830;2023-05-07T00:17:34;4.00;;;2.20;;
1685;SDS011;840;47.980;7.830;2023-05-07T00:20:01;2.07;;;1.97;;
1685;SDS011;840;47.980;7.830;2023-05-07T00:22:29;2.23;;;2.13;;
1685;SDS011;840;47.980;7.830;2023-05-07T00:24:58;2.30;;;2.10;;
1685;SDS011;840;47.980;7.830;2023-05-07T00:27:25;3.90;;;1.87;;
1685;SDS011;840;47.980;7.830;2023-05-07T00:29:52;2.27;;;2.10;;
1685;SDS011;840;47.980;7.830;2023-05-07T00:32:19;4.10;;;2.30;;
1685;SDS011;840;47.980;7.830;2023-05-07T00:34:46;3.83;;;2.00;;
1685;SDS011;840;47.980;7.830;2023-05-07T00:37:13;2.43;;;2.23;;
1685;SDS011;840;47.980;7.830;2023-05-07T00:39:39;1.93;;;1.83;;
1685;SDS011;840;47.980;7.830;2023-05-07T00:42:08;2.30;;;2.10;;
1685;SDS011;840;47.980;7.830;2023-05-07T00:44:35;4.47;;;2.20;;
1685;SDS011;840;47.980;7.830;2023-05-07T00:47:02;2.27;;;1.90;;
1685;SDS011;840;47.980;7.830;2023-05-07T00:49:33;2.70;;;2.50;;
1685;SDS011;840;47.980;7.830;2023-05-07T00:52:03;3.13;;;1.67;;
1685;SDS011;840;47.980;7.830;2023-05-07T00:54:31;7.13;;;2.83;;
1685;SDS011;840;47.980;7.830;2023-05-07T00:56:59;3.20;;;2.83;;
1685;SDS011;840;47.980;7.830;2023-05-07T00:59:29;2.77;;;2.47;;
1685;SDS011;840;47.980;7.830;2023-05-07T01:01:57;2.10;;;2.00;;
1685;SDS011;840;47.980;7.830;2023-05-07T01:04:25;2.23;;;2.13;;
1685;SDS011;840;47.980;7.830;2023-05-07T01:06:53;3.90;;;1.90;;
1685;SDS011;840;47.980;7.830;2023-05-07T01:09:22;3.57;;;2.40;;
1685;SDS011;840;47.980;7.830;2023-05-07T01:11:50;1.77;;;1.67;;
1685;SDS011;840;47.980;7.830;2023-05-07T01:14:17;2.67;;;2.40;;
1685;SDS011;840;47.980;7.830;2023-05-07T01:16:46;3.37;;;2.13;;
1685;SDS011;840;47.980;7.830;2023-05-07T01:19:16;3.33;;;2.50;;
1685;SDS011;840;47.980;7.830;2023-05-07T01:21:44;2.17;;;1.97;;
1685;SDS011;840;47.980;7.830;2023-05-07T01:24:14;2.97;;;2.33;;
1685;SDS011;840;47.980;7.830;2023-05-07T01:26:42;2.20;;;2.00;;
1685;SDS011;840;47.980;7.830;2023-05-07T01:29:09;8.80;;;2.10;;
1685;SDS011;840;47.980;7.830;2023-05-07T01:31:36;2.43;;;1.97;;
1685;SDS011;840;47.980;7.830;2023-05-07T01:34:04;1.83;;;1.73;;
1685;SDS011;840;47.980;7.830;2023-05-07T01:36:35;3.20;;;2.90;;
1685;SDS011;840;47.980;7.830;2023-05-07T01:39:03;3.30;;;2.27;;
1685;SDS011;840;47.980;7.830;2023-05-07T01:41:32;5.00;;;2.70;;
1685;SDS011;840;47.980;7.830;2023-05-07T01:43:59;3.20;;;3.00;;
1685;SDS011;840;47.980;7.830;2023-05-07T01:46:27;2.57;;;2.37;;
1685;SDS011;840;47.980;7.830;2023-05-07T01:48:54;1.67;;;1.57;;
1685;SDS011;840;47.980;7.830;2023-05-07T01:51:21;2.30;;;2.10;;
1685;SDS011;840;47.980;7.830;2023-05-07T01:53:48;2.77;;;2.53;;
1685;SDS011;840;47.980;7.830;2023-05-07T01:56:16;4.53;;;2.17;;
1685;SDS011;840;47.980;7.830;2023-05-07T01:58:44;2.40;;;1.60;;
1685;SDS011;840;47.980;7.830;2023-05-07T02:01:11;4.50;;;1.93;;
1685;SDS011;840;47.980;7.830;2023-05-07T02:03:38;2.60;;;2.03;;
1685;SDS011;840;47.980;7.830;2023-05-07T02:06:05;4.10;;;1.90;;
1685;SDS011;840;47.980;7.830;2023-05-07T02:08:32;2.33;;;2.13;;
1685;SDS011;840;47.980;7.830;2023-05-07T02:10:59;5.03;;;2.03;;
1685;SDS011;840;47.980;7.830;2023-05-07T02:13:26;2.60;;;1.93;;
1685;SDS011;840;47.980;7.830;2023-05-07T02:15:56;2.30;;;2.20;;
1685;SDS011;840;47.980;7.830;2023-05-07T02:18:23;2.00;;;1.80;;
1685;SDS011;840;47.980;7.830;2023-05-07T02:20:50;2.93;;;2.17;;
1685;SDS011;840;47.980;7.830;2023-05-07T02:23:17;2.63;;;1.90;;
1685;SDS011;840;47.980;7.830;2023-05-07T02:25:43;3.33;;;2.03;;
1685;SDS011;840;47.980;7.830;2023-05-07T02:28:10;1.73;;;1.50;;
1685;SDS011;840;47.980;7.830;2023-05-07T02:30:37;2.20;;;2.00;;
1685;SDS011;840;47.980;7.830;2023-05-07T02:33:06;6.33;;;2.30;;
1685;SDS011;840;47.980;7.830;2023-05-07T02:35:34;2.40;;;2.17;;
1685;SDS011;840;47.980;7.830;2023-05-07T02:38:01;3.27;;;2.30;;
1685;SDS011;840;47.980;7.830;2023-05-07T02:40:28;2.43;;;2.23;;
1685;SDS011;840;47.980;7.830;2023-05-07T02:42:55;2.93;;;2.13;;
1685;SDS011;840;47.980;7.830;2023-05-07T02:45:21;2.77;;;2.57;;
1685;SDS011;840;47.980;7.830;2023-05-07T02:47:48;4.40;;;2.43;;
1685;SDS011;840;47.980;7.830;2023-05-07T02:50:17;2.80;;;2.53;;
1685;SDS011;840;47.980;7.830;2023-05-07T02:52:44;3.47;;;2.43;;
1685;SDS011;840;47.980;7.830;2023-05-07T02:55:12;3.30;;;2.13;;
1685;SDS011;840;47.980;7.830;2023-05-07T02:57:41;2.23;;;2.03;;
1685;SDS011;840;47.980;7.830;2023-05-07T03:00:12;3.30;;;2.00;;
1685;SDS011;840;47.980;7.830;2023-05-07T03:02:40;3.33;;;2.50;;
1685;SDS011;840;47.980;7.830;2023-05-07T03:05:07;6.97;;;2.50;;
1685;SDS011;840;47.980;7.830;2023-05-07T03:07:35;3.70;;;2.30;;
1685;SDS011;840;47.980;7.830;2023-05-07T03:10:02;4.50;;;2.00;;
1685;SDS011;840;47.980;7.830;2023-05-07T03:12:30;4.80;;;2.40;;
1685;SDS011;840;47.980;7.830;2023-05-07T03:14:57;2.40;;;2.20;;
1685;SDS011;840;47.980;7.830;2023-05-07T03:17:24;2.23;;;2.03;;
1685;SDS011;840;47.980;7.830;2023-05-07T03:19:50;3.60;;;2.60;;
1685;SDS011;840;47.980;7.830;2023-05-07T03:22:17;2.40;;;2.20;;
1685;SDS011;840;47.980;7.830;2023-05-07T03:24:46;3.07;;;2.57;;
1685;SDS011;840;47.980;7.830;2023-05-07T03:27:12;2.37;;;1.97;;
1685;SDS011;840;47.980;7.830;2023-05-07T03:29:39;2.60;;;2.40;;
1685;SDS011;840;47.980;7.830;2023-05-07T03:32:05;2.53;;;2.37;;
1685;SDS011;840;47.980;7.830;2023-05-07T03:34:32;3.10;;;2.00;;
1685;SDS011;840;47.980;7.830;2023-05-07T03:36:59;3.03;;;2.47;;
1685;SDS011;840;47.980;7.830;2023-05-07T03:39:26;2.73;;;2.53;;
1685;SDS011;840;47.980;7.830;2023-05-07T03:41:55;2.40;;;2.20;;
1685;SDS011;840;47.980;7.830;2023-05-07T03:44:21;2.30;;;2.10;;
1685;SDS011;840;47.980;7.830;2023-05-07T03:46:48;2.20;;;2.00;;
1685;SDS011;840;47.980;7.830;2023-05-07T03:49:15;2.20;;;2.00;;
1685;SDS011;840;47.980;7.830;2023-05-07T03:51:42;3.90;;;2.00;;
1685;SDS011;840;47.980;7.830;2023-05-07T03:54:08;1.90;;;1.73;;
1685;SDS011;840;47.980;7.830;2023-05-07T03:56:35;4.10;;;2.10;;
1685;SDS011;840;47.980;7.830;2023-05-07T03:59:03;2.90;;;2.30;;
1685;SDS011;840;47.980;7.830;2023-05-07T04:01:30;2.70;;;2.50;;
1685;SDS011;840;47.980;7.830;2023-05-07T04:03:57;2.50;;;2.30;;
1685;SDS011;840;47.980;7.830;2023-05-07T04:06:24;3.80;;;2.00;;
1685;SDS011;840;47.980;7.830;2023-05-07T04:08:51;3.17;;;2.13;;
1685;SDS011;840;47.980;7.830;2023-05-07T04:11:17;4.93;;;3.37;;
1685;SDS011;840;47.980;7.830;2023-05-07T04:13:45;1.90;;;1.80;;
1685;SDS011;840;47.980;7.830;2023-05-07T04:16:16;4.37;;;2.63;;
1685;SDS011;840;47.980;7.830;2023-05-07T04:18:43;4.27;;;3.43;;
1685;SDS011;840;47.980;7.830;2023-05-07T04:21:13;5.40;;;3.37;;
1685;SDS011;840;47.980;7.830;2023-05-07T04:23:41;3.07;;;2.77;;
1685;SDS011;840;47.980;7.830;2023-05-07T04:26:07;2.40;;;2.30;;
1685;SDS011;840;47.980;7.830;2023-05-07T04:28:34;2.80;;;2.60;;
1685;SDS011;840;47.980;7.830;2023-05-07T04:31:01;4.13;;;3.30;;
1685;SDS011;840;47.980;7.830;2023-05-07T04:33:29;4.13;;;2.43;;
1685;SDS011;840;47.980;7.830;2023-05-07T04:35:56;2.80;;;2.60;;
1685;SDS011;840;47.980;7.830;2023-05-07T04:38:23;4.63;;;3.30;;
1685;SDS011;840;47.980;7.830;2023-05-07T04:40:50;3.20;;;2.90;;
1685;SDS011;840;47.980;7.830;2023-05-07T04:43:17;2.70;;;2.50;;
1685;SDS011;840;47.980;7.830;2023-05-07T04:45:44;7.07;;;4.00;;
1685;SDS011;840;47.980;7.830;2023-05-07T04:48:11;4.27;;;3.87;;
1685;SDS011;840;47.980;7.830;2023-05-07T04:50:42;8.83;;;5.97;;
1685;SDS011;840;47.980;7.830;2023-05-07T04:53:09;5.60;;;3.30;;
1685;SDS011;840;47.980;7.830;2023-05-07T04:55:36;3.03;;;2.83;;
1685;SDS011;840;47.980;7.830;2023-05-07T04:58:02;3.57;;;3.27;;
1685;SDS011;840;47.980;7.830;2023-05-07T05:00:29;3.47;;;3.17;;
1685;SDS011;840;47.980;7.830;2023-05-07T05:02:57;2.90;;;2.60;;
1685;SDS011;840;47.980;7.830;2023-05-07T05:05:24;3.23;;;2.53;;
1685;SDS011;840;47.980;7.830;2023-05-07T05:07:52;3.10;;;2.33;;
1685;SDS011;840;47.980;7.830;2023-05-07T05:10:20;2.37;;;2.27;;
1685;SDS011;840;47.980;7.830;2023-05-07T05:12:47;3.33;;;3.00;;
1685;SDS011;840;47.980;7.830;2023-05-07T05:15:14;2.70;;;2.50;;
1685;SDS011;840;47.980;7.830;2023-05-07T05:17:41;2.40;;;2.17;;
1685;SDS011;840;47.980;7.830;2023-05-07T05:20:08;3.23;;;2.60;;
1685;SDS011;840;47.980;7.830;2023-05-07T05:22:36;3.17;;;2.60;;
1685;SDS011;840;47.980;7.830;2023-05-07T05:25:05;2.90;;;2.30;;
1685;SDS011;840;47.980;7.830;2023-05-07T05:27:32;2.90;;;2.27;;
1685;SDS011;840;47.980;7.830;2023-05-07T05:30:00;2.40;;;2.20;;
1685;SDS011;840;47.980;7.830;2023-05-07T05:32:27;3.23;;;2.97;;
1685;SDS011;840;47.980;7.830;2023-05-07T05:34:55;2.93;;;2.37;;
1685;SDS011;840;47.980;7.830;2023-05-07T05:37:22;2.50;;;2.30;;
1685;SDS011;840;47.980;7.830;2023-05-07T05:39:49;2.40;;;2.13;;
1685;SDS011;840;47.980;7.830;2023-05-07T05:42:17;2.50;;;2.30;;
1685;SDS011;840;47.980;7.830;2023-05-07T05:44:45;2.97;;;2.33;;
1685;SDS011;840;47.980;7.830;2023-05-07T05:47:12;3.50;;;2.50;;
1685;SDS011;840;47.980;7.830;2023-05-07T05:49:39;8.40;;;7.57;;
1685;SDS011;840;47.980;7.830;2023-05-07T05:52:08;3.63;;;3.17;;
1685;SDS011;840;47.980;7.830;2023-05-07T05:54:35;6.13;;;3.03;;
1685;SDS011;840;47.980;7.830;2023-05-07T05:57:02;3.30;;;3.00;;
1685;SDS011;840;47.980;7.830;2023-05-07T05:59:30;3.03;;;2.80;;
1685;SDS011;840;47.980;7.830;2023-05-07T06:01:57;3.47;;;2.70;;
1685;SDS011;840;47.980;7.830;2023-05-07T06:04:24;3.60;;;3.30;;
1685;SDS011;840;47.980;7.830;2023-05-07T06:06:51;6.70;;;3.60;;
1685;SDS011;840;47.980;7.830;2023-05-07T06:09:18;4.40;;;4.10;;
1685;SDS011;840;47.980;7.830;2023-05-07T06:11:45;3.50;;;3.20;;
1685;SDS011;840;47.980;7.830;2023-05-07T06:14:12;3.33;;;3.13;;
1685;SDS011;840;47.980;7.830;2023-05-07T06:16:41;4.93;;;4.53;;
1685;SDS011;840;47.980;7.830;2023-05-07T06:19:07;3.40;;;3.10;;
1685;SDS011;840;47.980;7.830;2023-05-07T06:21:34;6.40;;;3.73;;
1685;SDS011;840;47.980;7.830;2023-05-07T06:24:01;4.53;;;4.13;;
1685;SDS011;840;47.980;7.830;2023-05-07T06:26:28;4.97;;;3.90;;
1685;SDS011;840;47.980;7.830;2023-05-07T06:28:55;4.30;;;3.90;;
1685;SDS011;840;47.980;7.830;2023-05-07T06:31:22;5.03;;;4.17;;
1685;SDS011;840;47.980;7.830;2023-05-07T06:33:51;4.67;;;4.17;;
1685;SDS011;840;47.980;7.830;2023-05-07T06:36:18;4.40;;;4.00;;
1685;SDS011;840;47.980;7.830;2023-05-07T06:38:45;3.50;;;3.20;;
1685;SDS011;840;47.980;7.830;2023-05-07T06:41:12;8.70;;;7.80;;
1685;SDS011;840;47.980;7.830;2023-05-07T06:43:39;4.10;;;3.80;;
1685;SDS011;840;47.980;7.830;2023-05-07T06:46:06;8.10;;;3.67;;
1685;SDS011;840;47.980;7.830;2023-05-07T06:48:33;4.57;;;4.00;;
1685;SDS011;840;47.980;7.830;2023-05-07T06:51:02;5.50;;;3.57;;
1685;SDS011;840;47.980;7.830;2023-05-07T06:53:30;3.53;;;3.23;;
1685;SDS011;840;47.980;7.830;2023-05-07T06:55:57;6.23;;;3.50;;
1685;SDS011;840;47.980;7.830;2023-05-07T06:58:23;3.97;;;3.57;;
1685;SDS011;840;47.980;7.830;2023-05-07T07:00:50;4.57;;;3.47;;
1685;SDS011;840;47.980;7.830;2023-05-07T07:03:17;4.07;;;3.67;;
1685;SDS011;840;47.980;7.830;2023-05-07T07:05:44;4.50;;;3.97;;
1685;SDS011;840;47.980;7.830;2023-05-07T07:08:13;3.60;;;3.40;;
1685;SDS011;840;47.980;7.830;2023-05-07T07:10:42;4.23;;;3.93;;
1685;SDS011;840;47.980;7.830;2023-05-07T07:13:09;5.53;;;4.00;;
1685;SDS011;840;47.980;7.830;2023-05-07T07:15:36;4.50;;;4.10;;
1685;SDS011;840;47.980;7.830;2023-05-07T07:18:02;4.00;;;3.70;;
1685;SDS011;840;47.980;7.830;2023-05-07T07:20:30;5.80;;;4.40;;
1685;SDS011;840;47.980;7.830;2023-05-07T07:22:57;4.30;;;4.00;;
1685;SDS011;840;47.980;7.830;2023-05-07T07:25:26;4.40;;;4.00;;
1685;SDS011;840;47.980;7.830;2023-05-07T07:27:53;4.93;;;4.53;;
1685;SDS011;840;47.980;7.830;2023-05-07T07:30:20;4.10;;;3.80;;
1685;SDS011;840;47.980;7.830;2023-05-07T07:32:47;4.77;;;4.37;;
1685;SDS011;840;47.980;7.830;2023-05-07T07:35:13;6.90;;;3.80;;
1685;SDS011;840;47.980;7.830;2023-05-07T07:37:41;4.93;;;4.53;;
1685;SDS011;840;47.980;7.830;2023-05-07T07:40:08;7.30;;;4.83;;
1685;SDS011;840;47.980;7.830;2023-05-07T07:42:37;5.03;;;4.53;;
1685;SDS011;840;47.980;7.830;2023-05-07T07:45:04;4.17;;;3.87;;
1685;SDS011;840;47.980;7.830;2023-05-07T07:47:32;4.30;;;4.00;;
1685;SDS011;840;47.980;7.830;2023-05-07T07:49:59;4.57;;;4.00;;
1685;SDS011;840;47.980;7.830;2023-05-07T07:52:25;4.60;;;4.20;;
1685;SDS011;840;47.980;7.830;2023-05-07T07:54:52;4.87;;;3.77;;
1685;SDS011;840;47.980;7.830;2023-05-07T07:57:19;7.70;;;5.37;;
1685;SDS011;840;47.980;7.830;2023-05-07T07:59:47;6.43;;;3.43;;
1685;SDS011;840;47.980;7.830;2023-05-07T08:02:14;4.87;;;4.40;;
1685;SDS011;840;47.980;7.830;2023-05-07T08:04:41;6.07;;;4.33;;
1685;SDS011;840;47.980;7.830;2023-05-07T08:07:08;4.40;;;4.00;;
1685;SDS011;840;47.980;7.830;2023-05-07T08:09:35;5.67;;;3.63;;
1685;SDS011;840;47.980;7.830;2023-05-07T08:12:04;5.20;;;4.70;;
1685;SDS011;840;47.980;7.830;2023-05-07T08:14:31;3.40;;;3.10;;
1685;SDS011;840;47.980;7.830;2023-05-07T08:16:59;4.77;;;4.33;;
1685;SDS011;840;47.980;7.830;2023-05-07T08:19:26;3.40;;;3.10;;
1685;SDS011;840;47.980;7.830;2023-05-07T08:21:53;5.03;;;4.30;;
1685;SDS011;840;47.980;7.830;2023-05-07T08:24:20;3.23;;;2.97;;
1685;SDS011;840;47.980;7.830;2023-05-07T08:26:47;4.57;;;4.03;;
1685;SDS011;840;47.980;7.830;2023-05-07T08:29:14;3.30;;;3.00;;
1685;SDS011;840;47.980;7.830;2023-05-07T08:31:41;3.90;;;3.67;;
1685;SDS011;840;47.980;7.830;2023-05-07T08:34:09;5.07;;;4.57;;
1685;SDS011;840;47.980;7.830;2023-05-07T08:36:36;4.80;;;3.27;;
1685;SDS011;840;47.980;7.830;2023-05-07T08:39:02;4.30;;;3.27;;
1685;SDS011;840;47.980;7.830;2023-05-07T08:41:29;4.33;;;3.73;;
1685;SDS011;840;47.980;7.830;2023-05-07T08:43:57;3.97;;;3.63;;
1685;SDS011;840;47.980;7.830;2023-05-07T08:46:24;5.20;;;3.97;;
1685;SDS011;840;47.980;7.830;2023-05-07T08:48:52;6.60;;;5.07;;
1685;SDS011;840;47.980;7.830;2023-05-07T08:51:21;4.27;;;3.87;;
1685;SDS011;840;47.980;7.830;2023-05-07T08:53:48;4.10;;;3.80;;
1685;SDS011;840;47.980;7.830;2023-05-07T08:56:16;4.27;;;3.97;;
1685;SDS011;840;47.980;7.830;2023-05-07T08:58:45;5.17;;;4.13;;
1685;SDS011;840;47.980;7.830;2023-05-07T09:01:13;4.43;;;4.03;;
1685;SDS011;840;47.980;7.830;2023-05-07T09:03:40;3.87;;;3.60;;
1685;SDS011;840;47.980;7.830;2023-05-07T09:06:10;5.50;;;4.97;;
1685;SDS011;840;47.980;7.830;2023-05-07T09:08:38;5.90;;;5.40;;
1685;SDS011;840;47.980;7.830;2023-05-07T09:11:05;5.53;;;5.03;;
1685;SDS011;840;47.980;7.830;2023-05-07T09:13:31;4.60;;;4.30;;
1685;SDS011;840;47.980;7.830;2023-05-07T09:15:58;4.27;;;3.97;;
1685;SDS011;840;47.980;7.830;2023-05-07T09:18:40;5.50;;;5.10;;
1685;SDS011;840;47.980;7.830;2023-05-07T09:21:09;7.87;;;4.93;;
1685;SDS011;840;47.980;7.830;2023-05-07T09:23:38;6.20;;;3.60;;
1685;SDS011;840;47.980;7.830;2023-05-07T09:26:06;4.00;;;3.70;;
1685;SDS011;840;47.980;7.830;2023-05-07T09:28:37;3.53;;;3.33;;
1685;SDS011;840;47.980;7.830;2023-05-07T09:31:06;3.70;;;3.10;;
1685;SDS011;840;47.980;7.830;2023-05-07T09:33:33;4.23;;;3.43;;
1685;SDS011;840;47.980;7.830;2023-05-07T09:36:04;4.47;;;4.07;;
1685;SDS011;840;47.980;7.830;2023-05-07T09:38:33;3.93;;;3.50;;
1685;SDS011;840;47.980;7.830;2023-05-07T09:41:03;6.07;;;3.20;;
1685;SDS011;840;47.980;7.830;2023-05-07T09:43:34;4.20;;;3.77;;
1685;SDS011;840;47.980;7.830;2023-05-07T09:46:02;3.93;;;3.63;;
1685;SDS011;840;47.980;7.830;2023-05-07T09:48:32;4.40;;;4.00;;
1685;SDS011;840;47.980;7.830;2023-05-07T09:51:03;3.90;;;3.40;;
1685;SDS011;840;47.980;7.830;2023-05-07T09:53:37;3.27;;;3.07;;
1685;SDS011;840;47.980;7.830;2023-05-07T09:56:07;2.90;;;2.70;;
1685;SDS011;840;47.980;7.830;2023-05-07T09:58:36;3.70;;;3.40;;
1685;SDS011;840;47.980;7.830;2023-05-07T10:01:04;4.60;;;3.60;;
1685;SDS011;840;47.980;7.830;2023-05-07T10:03:32;5.10;;;3.43;;
1685;SDS011;840;47.980;7.830;2023-05-07T10:06:01;3.83;;;3.47;;
1685;SDS011;840;47.980;7.830;2023-05-07T10:08:30;3.73;;;3.07;;
1685;SDS011;840;47.980;7.830;2023-05-07T10:10:57;3.33;;;3.00;;
1685;SDS011;840;47.980;7.830;2023-05-07T10:13:27;7.00;;;4.33;;
1685;SDS011;840;47.980;7.830;2023-05-07T10:15:55;3.67;;;3.40;;
1685;SDS011;840;47.980;7.830;2023-05-07T10:18:22;3.40;;;3.10;;
1685;SDS011;840;47.980;7.830;2023-05-07T10:20:54;4.40;;;4.10;;
1685;SDS011;840;47.980;7.830;2023-05-07T10:23:28;4.77;;;3.90;;
1685;SDS011;840;47.980;7.830;2023-05-07T10:25:58;5.07;;;4.57;;
1685;SDS011;840;47.980;7.830;2023-05-07T10:28:27;4.87;;;4.07;;
1685;SDS011;840;47.980;7.830;2023-05-07T10:30:58;3.93;;;3.63;;
1685;SDS011;840;47.980;7.830;2023-05-07T10:33:34;4.90;;;4.43;;
1685;SDS011;840;47.980;7.830;2023-05-07T10:36:02;4.13;;;3.70;;
1685;SDS011;840;47.980;7.830;2023-05-07T10:38:30;5.40;;;4.00;;
1685;SDS011;840;47.980;7.830;2023-05-07T10:40:57;5.30;;;4.10;;
1685;SDS011;840;47.980;7.830;2023-05-07T10:43:24;4.87;;;4.40;;
1685;SDS011;840;47.980;7.830;2023-05-07T10:46:11;4.47;;;3.97;;
1685;SDS011;840;47.980;7.830;2023-05-07T10:51:36;5.97;;;4.00;;
1685;SDS011;840;47.980;7.830;2023-05-07T10:54:19;4.70;;;4.30;;
1685;SDS011;840;47.980;7.830;2023-05-07T10:56:48;4.57;;;4.13;;
1685;SDS011;840;47.980;7.830;2023-05-07T10:59:33;4.90;;;4.47;;
1685;SDS011;840;47.980;7.830;2023-05-07T11:02:06;4.60;;;4.30;;
1685;SDS011;840;47.980;7.830;2023-05-07T11:04:34;3.43;;;3.23;;
1685;SDS011;840;47.980;7.830;2023-05-07T11:09:57;8.33;;;3.90;;
1685;SDS011;840;47.980;7.830;2023-05-07T11:12:46;4.70;;;3.67;;
1685;SDS011;840;47.980;7.830;2023-05-07T11:15:48;3.83;;;3.53;;
1685;SDS011;840;47.980;7.830;2023-05-07T11:18:16;3.93;;;3.63;;
1685;SDS011;840;47.980;7.830;2023-05-07T11:20:44;3.63;;;3.33;;
1685;SDS011;840;47.980;7.830;2023-05-07T11:26:23;4.30;;;4.00;;
1685;SDS011;840;47.980;7.830;2023-05-07T11:28:51;3.67;;;3.27;;
1685;SDS011;840;47.980;7.830;2023-05-07T11:31:24;3.73;;;3.43;;
1685;SDS011;840;47.980;7.830;2023-05-07T11:34:06;4.63;;;3.83;;
1685;SDS011;840;47.980;7.830;2023-05-07T11:36:33;3.97;;;3.30;;
1685;SDS011;840;47.980;7.830;2023-05-07T11:39:01;3.50;;;3.20;;
1685;SDS011;840;47.980;7.830;2023-05-07T11:41:34;3.70;;;3.40;;
1685;SDS011;840;47.980;7.830;2023-05-07T11:44:02;3.77;;;3.47;;
1685;SDS011;840;47.980;7.830;2023-05-07T11:46:30;3.40;;;3.20;;
1685;SDS011;840;47.980;7.830;2023-05-07T11:49:00;4.03;;;3.33;;
1685;SDS011;840;47.980;7.830;2023-05-07T11:51:27;3.63;;;3.33;;
1685;SDS011;840;47.980;7.830;2023-05-07T11:53:54;3.20;;;3.00;;
1685;SDS011;840;47.980;7.830;2023-05-07T11:56:20;3.77;;;3.47;;
1685;SDS011;840;47.980;7.830;2023-05-07T11:58:47;4.17;;;3.70;;
1685;SDS011;840;47.980;7.830;2023-05-07T12:01:16;4.40;;;3.50;;
1685;SDS011;840;47.980;7.830;2023-05-07T12:03:45;9.70;;;3.63;;
1685;SDS011;840;47.980;7.830;2023-05-07T12:06:13;4.70;;;3.60;;
1685;SDS011;840;47.980;7.830;2023-05-07T12:08:41;4.23;;;3.77;;
1685;SDS011;840;47.980;7.830;2023-05-07T12:11:09;3.60;;;3.30;;
1685;SDS011;840;47.980;7.830;2023-05-07T12:13:38;4.00;;;3.67;;
1685;SDS011;840;47.980;7.830;2023-05-07T12:16:06;3.87;;;3.57;;
1685;SDS011;840;47.980;7.830;2023-05-07T12:18:34;4.47;;;4.07;;
1685;SDS011;840;47.980;7.830;2023-05-07T12:21:03;4.03;;;3.70;;
1685;SDS011;840;47.980;7.830;2023-05-07T12:23:31;5.63;;;3.80;;
1685;SDS011;840;47.980;7.830;2023-05-07T12:26:00;4.00;;;3.60;;
1685;SDS011;840;47.980;7.830;2023-05-07T12:28:27;3.83;;;3.03;;
1685;SDS011;840;47.980;7.830;2023-05-07T12:30:55;2.83;;;2.60;;
1685;SDS011;840;47.980;7.830;2023-05-07T12:33:23;5.70;;;3.93;;
1685;SDS011;840;47.980;7.830;2023-05-07T12:35:53;4.50;;;2.73;;
1685;SDS011;840;47.980;7.830;2023-05-07T12:38:22;3.60;;;3.30;;
1685;SDS011;840;47.980;7.830;2023-05-07T12:40:50;3.07;;;2.77;;
1685;SDS011;840;47.980;7.830;2023-05-07T12:43:20;4.00;;;3.67;;
1685;SDS011;840;47.980;7.830;2023-05-07T12:45:48;3.90;;;3.60;;
1685;SDS011;840;47.980;7.830;2023-05-07T12:48:16;5.07;;;3.77;;
1685;SDS011;840;47.980;7.830;2023-05-07T12:50:45;3.87;;;3.57;;
1685;SDS011;840;47.980;7.830;2023-05-07T12:53:15;3.47;;;2.80;;
1685;SDS011;840;47.980;7.830;2023-05-07T12:55:44;2.60;;;2.47;;
1685;SDS011;840;47.980;7.830;2023-05-07T12:58:15;3.20;;;3.00;;
1685;SDS011;840;47.980;7.830;2023-05-07T13:00:43;4.00;;;2.80;;
1685;SDS011;840;47.980;7.830;2023-05-07T13:03:10;2.83;;;2.57;;
1685;SDS011;840;47.980;7.830;2023-05-07T13:05:37;3.10;;;2.90;;
1685;SDS011;840;47.980;7.830;2023-05-07T13:08:05;2.97;;;2.77;;
1685;SDS011;840;47.980;7.830;2023-05-07T13:10:34;3.20;;;2.77;;
1685;SDS011;840;47.980;7.830;2023-05-07T13:13:02;2.50;;;2.30;;
1685;SDS011;840;47.980;7.830;2023-05-07T13:15:29;3.07;;;2.87;;
1685;SDS011;840;47.980;7.830;2023-05-07T13:17:56;3.63;;;3.20;;
1685;SDS011;840;47.980;7.830;2023-05-07T13:20:23;3.83;;;3.23;;
1685;SDS011;840;47.980;7.830;2023-05-07T13:22:50;3.57;;;3.17;;
1685;SDS011;840;47.980;7.830;2023-05-07T13:25:17;3.47;;;3.20;;
1685;SDS011;840;47.980;7.830;2023-05-07T13:27:44;5.17;;;2.77;;
1685;SDS011;840;47.980;7.830;2023-05-07T13:30:12;3.57;;;3.37;;
1685;SDS011;840;47.980;7.830;2023-05-07T13:32:39;3.50;;;3.17;;
1685;SDS011;840;47.980;7.830;2023-05-07T13:35:07;3.93;;;3.33;;
1685;SDS011;840;47.980;7.830;2023-05-07T13:37:34;4.50;;;3.87;;
1685;SDS011;840;47.980;7.830;2023-05-07T13:40:03;3.93;;;3.40;;
1685;SDS011;840;47.980;7.830;2023-05-07T13:42:31;3.80;;;3.50;;
1685;SDS011;840;47.980;7.830;2023-05-07T13:44:58;3.60;;;3.27;;
1685;SDS011;840;47.980;7.830;2023-05-07T13:47:27;4.30;;;3.90;;
1685;SDS011;840;47.980;7.830;2023-05-07T13:49:53;3.77;;;3.47;;
1685;SDS011;840;47.980;7.830;2023-05-07T13:52:20;4.40;;;4.10;;
1685;SDS011;840;47.980;7.830;2023-05-07T13:54:47;3.80;;;3.53;;
1685;SDS011;840;47.980;7.830;2023-05-07T13:57:14;6.07;;;3.70;;
1685;SDS011;840;47.980;7.830;2023-05-07T13:59:40;3.60;;;3.40;;
1685;SDS011;840;47.980;7.830;2023-05-07T14:02:07;4.03;;;3.73;;
1685;SDS011;840;47.980;7.830;2023-05-07T14:04:36;3.97;;;3.67;;
1685;SDS011;840;47.980;7.830;2023-05-07T14:07:03;4.00;;;3.60;;
1685;SDS011;840;47.980;7.830;2023-05-07T14:09:30;4.40;;;3.60;;
1685;SDS011;840;47.980;7.830;2023-05-07T14:11:58;3.53;;;3.30;;
1685;SDS011;840;47.980;7.830;2023-05-07T14:14:26;3.90;;;3.60;;
1685;SDS011;840;47.980;7.830;2023-05-07T14:16:53;3.93;;;3.63;;
1685;SDS011;840;47.980;7.830;2023-05-07T14:19:23;2.83;;;2.63;;
1685;SDS011;840;47.980;7.830;2023-05-07T14:21:51;3.43;;;3.17;;
1685;SDS011;840;47.980;7.830;2023-05-07T14:24:18;2.40;;;2.20;;
1685;SDS011;840;47.980;7.830;2023-05-07T14:26:45;2.90;;;2.70;;
1685;SDS011;840;47.980;7.830;2023-05-07T14:29:12;2.97;;;2.77;;
1685;SDS011;840;47.980;7.830;2023-05-07T14:31:40;4.10;;;2.50;;
1685;SDS011;840;47.980;7.830;2023-05-07T14:34:07;3.47;;;2.60;;
1685;SDS011;840;47.980;7.830;2023-05-07T14:36:34;2.43;;;2.23;;
1685;SDS011;840;47.980;7.830;2023-05-07T14:39:02;3.87;;;3.07;;
1685;SDS011;840;47.980;7.830;2023-05-07T14:41:29;3.20;;;3.00;;
1685;SDS011;840;47.980;7.830;2023-05-07T14:43:56;3.43;;;3.23;;
1685;SDS011;840;47.980;7.830;2023-05-07T14:46:24;5.78;;;5.25;;
1685;SDS011;840;47.980;7.830;2023-05-07T14:48:50;3.10;;;2.60;;
1685;SDS011;840;47.980;7.830;2023-05-07T14:51:17;3.17;;;2.37;;
1685;SDS011;840;47.980;7.830;2023-05-07T14:53:44;2.77;;;2.53;;
1685;SDS011;840;47.980;7.830;2023-05-07T14:56:12;2.23;;;2.13;;
1685;SDS011;840;47.980;7.830;2023-05-07T14:58:39;1.93;;;1.70;;
1685;SDS011;840;47.980;7.830;2023-05-07T15:01:06;2.13;;;1.63;;
1685;SDS011;840;47.980;7.830;2023-05-07T15:03:33;0.80;;;0.80;;
1685;SDS011;840;47.980;7.830;2023-05-07T15:06:02;1.53;;;1.00;;
1685;SDS011;840;47.980;7.830;2023-05-07T15:08:29;1.80;;;1.00;;
1685;SDS011;840;47.980;7.830;2023-05-07T15:10:56;1.20;;;1.07;;
1685;SDS011;840;47.980;7.830;2023-05-07T15:13:24;1.17;;;1.10;;
1685;SDS011;840;47.980;7.830;2023-05-07T15:15:51;1.60;;;1.50;;
1685;SDS011;840;47.980;7.830;2023-05-07T15:18:18;1.53;;;1.07;;
1685;SDS011;840;47.980;7.830;2023-05-07T15:20:45;1.50;;;1.10;;
1685;SDS011;840;47.980;7.830;2023-05-07T15:23:12;1.40;;;1.30;;
1685;SDS011;840;47.980;7.830;2023-05-07T15:25:39;2.67;;;1.33;;
1685;SDS011;840;47.980;7.830;2023-05-07T15:28:06;1.53;;;1.07;;
1685;SDS011;840;47.980;7.830;2023-05-07T15:30:34;2.33;;;1.70;;
1685;SDS011;840;47.980;7.830;2023-05-07T15:33:01;2.33;;;1.83;;
1685;SDS011;840;47.980;7.830;2023-05-07T15:35:28;1.63;;;1.53;;
1685;SDS011;840;47.980;7.830;2023-05-07T15:37:55;2.40;;;2.30;;
1685;SDS011;840;47.980;7.830;2023-05-07T15:40:22;3.30;;;2.23;;
1685;SDS011;840;47.980;7.830;2023-05-07T15:42:49;1.63;;;1.23;;